METAR Data
IDs: Format: Raw Decoded Include TAF

Data at: 1701 UTC 30 Oct 2020

KERV 301655Z AUTO 21003KT 10SM CLR 17/00 A3034 RMK AO2 T01680002
KERV 301635Z AUTO 20005KT 10SM CLR 16/02 A3034 RMK AO2 T01560020
KERV 301615Z AUTO 16004KT 10SM CLR 15/02 A3034 RMK AO2 T01490021
KERV 301555Z AUTO 13005KT 10SM CLR 15/01 A3035 RMK AO2 T01480008
KERV 301535Z AUTO 06003KT 10SM CLR 14/01 A3035 RMK AO2 T01400010
KERV 301515Z AUTO 03007KT 10SM CLR 12/02 A3035 RMK AO2 T01220024
KERV 301455Z AUTO 00000KT 10SM CLR 09/05 A3034 RMK AO2 T00920045
KERV 301435Z AUTO 00000KT 10SM CLR 07/04 A3034 RMK AO2 T00680038
KERV 301415Z AUTO 00000KT 10SM CLR 05/03 A3032 RMK AO2 T00500030
KERV 301355Z AUTO 00000KT 10SM CLR 04/02 A3032 RMK AO2 T00360020
KERV 301335Z AUTO 00000KT 10SM CLR 02/01 A3031 RMK AO2 T00200008
KERV 301315Z AUTO 00000KT 10SM CLR 01/00 A3031 RMK AO2 T00051005

KT82 301655Z AUTO 12004KT 10SM CLR 16/00 A3034 RMK AO2 T01551005
KT82 301635Z AUTO 06003KT 10SM CLR 15/00 A3034 RMK AO2 T01471001
KT82 301615Z AUTO 11003KT 10SM CLR 14/00 A3035 RMK AO2 T01441001
KT82 301555Z AUTO 06003KT 10SM CLR 14/00 A3035 RMK AO2 T01360002
KT82 301535Z AUTO 06004KT 10SM CLR 13/01 A3035 RMK AO2 T01270009
KT82 301515Z AUTO 05007KT 10SM CLR 12/01 A3035 RMK AO2 T01190010
KT82 301455Z AUTO 00000KT 10SM CLR 09/04 A3035 RMK AO2 T00890037
KT82 301435Z AUTO 00000KT 10SM CLR 07/03 A3034 RMK AO2 T00710034
KT82 301415Z AUTO 00000KT 10SM CLR 06/04 A3033 RMK AO2 T00550036
KT82 301355Z AUTO 00000KT 10SM CLR 05/04 A3032 RMK AO2 T00450035
KT82 301335Z AUTO 00000KT 10SM CLR 03/02 A3032 RMK AO2 T00260021
KT82 301315Z AUTO 00000KT 10SM CLR 02/01 A3031 RMK AO2 T00150014

KHDO 301651Z AUTO 17004KT 10SM CLR 16/02 A3036 RMK AO2 SLP273 T01610017 TSNO
KHDO 301551Z AUTO 12005KT 10SM CLR 15/02 A3037 RMK AO2 SLP277 T01500022 TSNO
KHDO 301451Z AUTO 24006KT 10SM CLR 12/03 A3036 RMK AO2 RAB30E40 SLP276 P0000 60000 T01220033 53027 TSNO
KHDO 301351Z AUTO 00000KT 10SM CLR 08/04 A3033 RMK AO2 SLP265 T00780039 TSNO